createdAt,value
2023-04-15T00:03:28.214Z,33.84
2023-04-15T00:07:28.296Z,33.83
2023-04-15T00:11:28.889Z,33.85
2023-04-15T00:15:28.930Z,33.82
2023-04-15T00:19:28.939Z,33.83
2023-04-15T00:23:28.999Z,33.81
2023-04-15T00:27:29.208Z,33.81
2023-04-15T00:31:29.650Z,33.81
2023-04-15T00:35:29.407Z,33.79
2023-04-15T00:39:29.444Z,33.79
2023-04-15T00:43:29.439Z,33.81
2023-04-15T00:47:29.041Z,33.81
2023-04-15T00:51:29.434Z,33.80
2023-04-15T00:55:29.460Z,33.78
2023-04-15T00:59:29.452Z,33.77
2023-04-15T01:03:29.425Z,33.73
2023-04-15T01:07:29.470Z,33.74
2023-04-15T01:11:29.672Z,33.74
2023-04-15T01:15:29.837Z,33.78
2023-04-15T01:19:30.027Z,33.79
2023-04-15T01:23:30.108Z,33.78
2023-04-15T01:27:30.203Z,33.75
2023-04-15T01:31:30.493Z,33.75
2023-04-15T01:35:30.444Z,33.74
2023-04-15T01:39:31.459Z,33.74
2023-04-15T01:43:30.624Z,33.75
2023-04-15T01:47:31.028Z,33.77
2023-04-15T01:51:30.973Z,33.74
2023-04-15T01:55:30.967Z,33.77
2023-04-15T01:59:30.954Z,33.75
2023-04-15T02:03:31.120Z,33.76
2023-04-15T02:07:31.476Z,33.77
2023-04-15T02:11:31.475Z,33.74
2023-04-15T02:15:31.491Z,33.75
2023-04-15T02:19:31.175Z,33.76
2023-04-15T02:23:31.132Z,33.74
2023-04-15T02:27:31.484Z,33.73
2023-04-15T02:31:31.502Z,33.72
2023-04-15T02:35:31.455Z,33.73
2023-04-15T02:39:31.098Z,33.71
2023-04-15T02:43:31.472Z,33.76
2023-04-15T02:47:31.534Z,33.74
2023-04-15T02:51:31.479Z,33.74
2023-04-15T02:55:31.504Z,33.72
2023-04-15T02:59:31.038Z,33.74
2023-04-15T03:03:31.158Z,33.74
2023-04-15T03:07:30.984Z,33.73
2023-04-15T03:11:30.934Z,33.73
2023-04-15T03:15:31.072Z,33.75
2023-04-15T03:19:30.907Z,33.76
2023-04-15T03:23:31.010Z,33.74
2023-04-15T03:27:31.035Z,33.74
2023-04-15T03:31:30.928Z,33.71
2023-04-15T03:35:31.017Z,33.65
2023-04-15T03:39:30.874Z,33.62
2023-04-15T03:43:31.031Z,33.57
2023-04-15T03:47:31.020Z,33.52
2023-04-15T03:51:31.015Z,33.49
2023-04-15T03:55:31.017Z,33.50
2023-04-15T03:59:30.853Z,33.44
2023-04-15T04:03:30.941Z,33.45
2023-04-15T04:07:30.830Z,33.41
2023-04-15T04:11:31.032Z,33.40
2023-04-15T04:15:30.815Z,33.37
2023-04-15T04:19:30.824Z,33.36
2023-04-15T04:23:30.858Z,33.37
2023-04-15T04:27:31.027Z,33.41
2023-04-15T04:31:30.947Z,33.41
2023-04-15T04:35:30.879Z,33.34
2023-04-15T04:39:31.056Z,33.35
2023-04-15T04:43:31.045Z,33.32
2023-04-15T04:47:31.081Z,33.26
2023-04-15T04:51:30.936Z,33.16
2023-04-15T04:55:30.954Z,33.14
2023-04-15T04:59:31.039Z,33.13
2023-04-15T05:03:31.043Z,33.13
2023-04-15T05:07:31.044Z,33.10
2023-04-15T05:11:31.055Z,33.13
2023-04-15T05:15:31.132Z,33.12
2023-04-15T05:19:31.549Z,33.13
2023-04-15T05:23:31.235Z,33.12
2023-04-15T05:27:31.525Z,33.06
2023-04-15T05:31:31.598Z,33.08
2023-04-15T05:35:31.330Z,33.07
2023-04-15T05:39:31.572Z,33.04
2023-04-15T05:43:31.419Z,32.95
2023-04-15T05:47:31.568Z,32.90
2023-04-15T05:51:31.533Z,32.89
2023-04-15T05:55:31.585Z,32.86
2023-04-15T05:59:32.045Z,32.80
2023-04-15T06:03:31.844Z,32.73
2023-04-15T06:07:32.060Z,32.73
2023-04-15T06:11:31.820Z,32.71
2023-04-15T06:15:31.929Z,32.63
2023-04-15T06:19:31.953Z,32.59
2023-04-15T06:23:32.035Z,32.62
2023-04-15T06:27:32.578Z,32.62
2023-04-15T06:31:32.624Z,32.64
2023-04-15T06:35:32.164Z,32.55
2023-04-15T06:39:32.564Z,32.62
2023-04-15T06:43:32.218Z,32.93
2023-04-15T06:47:32.689Z,33.01
2023-04-15T06:51:32.594Z,33.02
2023-04-15T06:55:32.402Z,33.00
2023-04-15T06:59:32.566Z,33.07
2023-04-15T07:03:32.942Z,33.10
2023-04-15T07:07:32.619Z,33.09
2023-04-15T07:11:32.603Z,32.91
2023-04-15T07:15:33.116Z,32.74
2023-04-15T07:19:32.685Z,32.78
2023-04-15T07:23:33.090Z,32.89
2023-04-15T07:27:32.795Z,32.85
2023-04-15T07:31:32.861Z,32.79
2023-04-15T07:35:32.842Z,32.68
2023-04-15T07:39:33.124Z,32.64
2023-04-15T07:43:33.117Z,32.69
2023-04-15T07:47:33.121Z,32.71
2023-04-15T07:51:33.026Z,32.59
2023-04-15T07:55:33.052Z,32.35
2023-04-15T07:59:33.127Z,32.38
2023-04-15T08:03:33.263Z,32.25
2023-04-15T08:07:33.173Z,32.40
2023-04-15T08:11:33.200Z,32.29
2023-04-15T08:15:33.616Z,32.28
2023-04-15T08:19:33.635Z,32.17
2023-04-15T08:23:33.622Z,32.17
2023-04-15T08:27:33.627Z,32.15
2023-04-15T08:31:33.325Z,32.29
2023-04-15T08:35:33.334Z,32.28
2023-04-15T08:39:33.623Z,32.06
2023-04-15T08:43:33.624Z,32.29
2023-04-15T08:47:33.379Z,32.47
2023-04-15T08:51:33.643Z,32.34
2023-04-15T08:55:33.696Z,32.24
2023-04-15T08:59:33.412Z,32.28
2023-04-15T09:03:33.466Z,32.24
2023-04-15T09:07:33.456Z,32.13
2023-04-15T09:11:33.638Z,32.06
2023-04-15T09:15:33.673Z,32.05
2023-04-15T09:19:33.405Z,32.03
2023-04-15T09:23:33.651Z,32.10
2023-04-15T09:27:33.360Z,31.98
2023-04-15T09:31:33.648Z,31.66
2023-04-15T09:35:33.660Z,31.83
2023-04-15T09:39:33.297Z,31.63
2023-04-15T09:43:33.681Z,31.46
2023-04-15T09:47:33.279Z,31.59
2023-04-15T09:51:33.704Z,31.45
2023-04-15T09:55:33.651Z,31.50
2023-04-15T09:59:33.163Z,31.59
2023-04-15T10:03:33.335Z,31.41
2023-04-15T10:07:33.183Z,31.54
2023-04-15T10:11:33.147Z,31.98
2023-04-15T10:15:33.197Z,31.60
2023-04-15T10:19:33.152Z,31.66
2023-04-15T10:23:33.096Z,31.45
2023-04-15T10:27:33.167Z,31.31
2023-04-15T10:31:33.268Z,31.25
2023-04-15T10:35:33.201Z,31.28
2023-04-15T10:39:33.038Z,31.17
2023-04-15T10:43:33.050Z,30.99
2023-04-15T10:47:33.238Z,30.98
2023-04-15T10:51:33.694Z,30.97
2023-04-15T10:55:32.978Z,31.06
2023-04-15T10:59:33.211Z,30.83
2023-04-15T11:03:33.168Z,30.85
2023-04-15T11:07:33.192Z,30.73
2023-04-15T11:11:32.912Z,30.82
2023-04-15T11:15:33.186Z,30.73
2023-04-15T11:19:33.204Z,30.59
2023-04-15T11:23:32.872Z,30.68
2023-04-15T11:27:33.187Z,30.65
2023-04-15T11:31:33.234Z,30.44
2023-04-15T11:35:33.185Z,30.37
2023-04-15T11:39:32.848Z,30.45
2023-04-15T11:43:32.799Z,30.43
2023-04-15T11:47:33.241Z,30.41
2023-04-15T11:51:32.828Z,30.44
2023-04-15T11:55:33.180Z,30.52
2023-04-15T11:59:44.429Z,30.43
2023-04-15T12:03:33.954Z,30.40
2023-04-15T12:07:32.731Z,30.42
2023-04-15T12:11:32.734Z,30.44
2023-04-15T12:15:32.669Z,30.40
2023-04-15T12:19:32.621Z,30.36
2023-04-15T12:23:32.702Z,30.29
2023-04-15T12:27:32.726Z,30.30
2023-04-15T12:31:32.822Z,30.10
2023-04-15T12:35:32.495Z,30.17
2023-04-15T12:39:32.505Z,30.08
2023-04-15T12:43:32.729Z,30.08
2023-04-15T12:47:32.863Z,30.07
2023-04-15T12:51:32.744Z,30.07
2023-04-15T12:55:32.720Z,30.07
2023-04-15T12:59:32.703Z,30.11
2023-04-15T13:03:39.974Z,30.15
2023-04-15T13:07:32.777Z,30.18
2023-04-15T13:11:32.741Z,30.22
2023-04-15T13:15:32.714Z,30.19
2023-04-15T13:19:32.680Z,30.16
2023-04-15T13:23:32.776Z,30.24
2023-04-15T13:27:32.777Z,30.28
2023-04-15T13:31:32.804Z,30.19
2023-04-15T13:35:32.541Z,30.21
2023-04-15T13:39:32.760Z,30.25
2023-04-15T13:43:32.795Z,30.28
2023-04-15T13:47:32.814Z,30.27
2023-04-15T13:51:32.849Z,30.32
2023-04-15T13:55:32.910Z,30.34
2023-04-15T13:59:33.277Z,30.35
2023-04-15T14:03:33.417Z,30.37
2023-04-15T14:07:33.303Z,30.40
2023-04-15T14:11:34.286Z,30.43
2023-04-15T14:15:33.432Z,30.42
2023-04-15T14:19:33.785Z,30.44
2023-04-15T14:23:33.804Z,30.46
2023-04-15T14:27:33.747Z,30.58
2023-04-15T14:31:34.307Z,30.57
2023-04-15T14:35:33.944Z,30.55
2023-04-15T14:39:34.304Z,30.56
2023-04-15T14:43:34.323Z,30.62
2023-04-15T14:47:34.303Z,30.61
2023-04-15T14:51:34.794Z,30.64
2023-04-15T14:55:34.415Z,30.63
2023-04-15T14:59:34.797Z,30.69
2023-04-15T15:03:34.939Z,30.74
2023-04-15T15:07:35.317Z,30.75
2023-04-15T15:11:34.947Z,30.74
2023-04-15T15:15:35.083Z,30.77
2023-04-15T15:19:35.316Z,30.77
2023-04-15T15:23:35.847Z,30.74
2023-04-15T15:27:38.115Z,30.74
2023-04-15T15:31:35.850Z,30.78
2023-04-15T15:35:35.387Z,30.78
2023-04-15T15:39:35.831Z,30.83
2023-04-15T15:43:35.804Z,30.81
2023-04-15T15:47:35.324Z,30.86
2023-04-15T15:51:35.248Z,30.88
2023-04-15T15:55:35.349Z,30.89
2023-04-15T15:59:35.343Z,30.93
2023-04-15T16:03:35.296Z,30.92
2023-04-15T16:07:35.323Z,30.95
2023-04-15T16:11:35.056Z,30.97
2023-04-15T16:15:35.033Z,31.03
2023-04-15T16:19:35.151Z,31.03
2023-04-15T16:23:35.310Z,31.07
2023-04-15T16:27:46.499Z,31.07
2023-04-15T16:31:36.486Z,31.09
2023-04-15T16:35:35.851Z,31.12
2023-04-15T16:39:35.867Z,31.16
2023-04-15T16:43:36.369Z,31.20
2023-04-15T16:47:36.387Z,31.22
2023-04-15T16:51:36.323Z,31.25
2023-04-15T16:55:36.840Z,31.28
2023-04-15T16:59:36.835Z,31.27
2023-04-15T17:03:37.024Z,31.31
2023-04-15T17:07:37.333Z,31.33
2023-04-15T17:11:37.204Z,31.35
2023-04-15T17:15:37.924Z,31.38
2023-04-15T17:19:37.827Z,31.41
2023-04-15T17:23:37.896Z,31.41
2023-04-15T17:27:38.358Z,31.43
2023-04-15T17:31:38.204Z,31.47
2023-04-15T17:35:38.882Z,31.45
2023-04-15T17:39:38.882Z,31.48
2023-04-15T17:43:38.896Z,31.54
2023-04-15T17:47:39.411Z,31.57
2023-04-15T17:51:39.195Z,31.61
2023-04-15T17:55:39.208Z,31.64
2023-04-15T17:59:39.140Z,31.63
2023-04-15T18:03:39.174Z,31.66
2023-04-15T18:07:39.388Z,31.69
2023-04-15T18:11:39.003Z,31.71
2023-04-15T18:15:38.956Z,31.74
2023-04-15T18:19:38.921Z,31.80
2023-04-15T18:23:38.904Z,31.80
2023-04-15T18:27:38.923Z,31.83
2023-04-15T18:31:38.854Z,31.88
2023-04-15T18:35:39.395Z,31.92
2023-04-15T18:39:39.388Z,31.91
2023-04-15T18:43:39.387Z,31.92
2023-04-15T18:47:39.321Z,31.91
2023-04-15T18:51:39.258Z,31.94
2023-04-15T18:55:39.389Z,31.93
2023-04-15T18:59:39.394Z,31.99
2023-04-15T19:03:39.171Z,32.00
2023-04-15T19:07:39.113Z,32.01
2023-04-15T19:11:39.062Z,32.03
2023-04-15T19:15:39.447Z,32.04
2023-04-15T19:19:39.004Z,32.03
2023-04-15T19:23:39.414Z,32.03
2023-04-15T19:27:39.113Z,32.06
2023-04-15T19:31:39.398Z,32.03
2023-04-15T19:35:39.408Z,32.02
2023-04-15T19:39:39.400Z,32.02
2023-04-15T19:43:39.439Z,32.02
2023-04-15T19:47:39.018Z,32.02
2023-04-15T19:51:38.863Z,32.02
2023-04-15T19:55:38.941Z,32.04
2023-04-15T19:59:38.787Z,32.07
2023-04-15T20:03:38.910Z,32.08
2023-04-15T20:07:38.744Z,32.07
2023-04-15T20:12:46.792Z,32.09
2023-04-15T20:15:39.951Z,32.08
2023-04-15T20:19:38.861Z,32.12
2023-04-15T20:23:38.916Z,32.15
2023-04-15T20:27:38.811Z,32.19
2023-04-15T20:31:38.986Z,32.18
2023-04-15T20:35:38.955Z,32.17
2023-04-15T20:39:38.926Z,32.19
2023-04-15T20:43:38.632Z,32.18
2023-04-15T20:47:38.955Z,32.19
2023-04-15T20:51:38.987Z,32.21
2023-04-15T20:55:38.952Z,32.21
2023-04-15T20:59:38.594Z,32.22
2023-04-15T21:03:38.766Z,32.23
2023-04-15T21:07:38.554Z,32.24
2023-04-15T21:11:57.259Z,32.27
2023-04-15T21:15:39.974Z,32.28
2023-04-15T21:19:38.972Z,32.27
2023-04-15T21:23:38.557Z,32.31
2023-04-15T21:27:38.982Z,32.31
2023-04-15T21:31:39.045Z,32.35
2023-04-15T21:35:38.481Z,32.34
2023-04-15T21:39:38.460Z,32.34
2023-04-15T21:43:38.383Z,32.35
2023-04-15T21:48:04.785Z,32.37
2023-04-15T21:51:39.514Z,32.38
2023-04-15T21:55:38.466Z,32.38
2023-04-15T21:59:38.340Z,32.41
2023-04-15T22:03:38.459Z,32.39
2023-04-15T22:07:38.478Z,32.39
2023-04-15T22:11:38.486Z,32.41
2023-04-15T22:15:38.193Z,32.44
2023-04-15T22:19:38.154Z,32.44
2023-04-15T22:23:38.483Z,32.45
2023-04-15T22:27:38.473Z,32.43
2023-04-15T22:31:38.077Z,32.46
2023-04-15T22:35:38.511Z,32.47
2023-04-15T22:39:38.196Z,32.50
2023-04-15T22:43:38.499Z,32.50
2023-04-15T22:47:38.513Z,32.48
2023-04-15T22:51:38.525Z,32.49
2023-04-15T22:55:38.028Z,32.49
2023-04-15T22:59:37.992Z,32.51
2023-04-15T23:03:55.829Z,32.52
2023-04-15T23:07:39.555Z,32.52
2023-04-15T23:11:37.995Z,32.53
2023-04-15T23:15:40.232Z,32.52
2023-04-15T23:19:37.977Z,32.53
2023-04-15T23:23:37.903Z,32.53
2023-04-15T23:27:38.021Z,32.55
2023-04-15T23:31:39.072Z,32.54
2023-04-15T23:35:37.835Z,32.55
2023-04-15T23:39:37.831Z,32.56
2023-04-15T23:43:38.035Z,32.60
2023-04-15T23:47:38.037Z,32.60
2023-04-15T23:51:38.000Z,32.58
2023-04-15T23:55:37.831Z,32.56
2023-04-15T23:59:39.528Z,32.61
